Pachena No 1 — VD2970 — position and weather

sailwx.info

Track history (hours):
 
Tides and Currents Weather Stations Pressure Air Temp Water Temp Dewpoint Dewpoint Depression Visibility Wind Speed Wind Dir Waves Ship Positions

Pachena No 1

Last reported at 2018-Apr-16 21:54 UTC. Time now 2018-Apr-22 06:34 UTC.
Position N 52°15' W 128°30'.

Length 20 m.

Type: Fishing. MMSI: 316005100.

Date/timePositionNaut miles runAvg speedWind from/ knotsBaromVisibWave heightAir tempDewpointWater temp
2018-Apr-16 21:54N 52°15' W 128°30'3 6.9
2018-Apr-16 21:27N 52°15' W 128°35'3 6.8
2018-Apr-16 21:00N 52°14' W 128°40'3 6.2
2018-Apr-16 20:26N 52°14' W 128°46'  
2018-Apr-09 08:37N 51°46' W 128°55'1 6.7
2018-Apr-09 08:27N 51°45' W 128°54'3 6.4
2018-Apr-09 07:56N 51°43' W 128°51'3 6.2
2018-Apr-09 07:30N 51°41' W 128°48'3 6.1
2018-Apr-09 07:00N 51°38' W 128°45'3 6.0
2018-Apr-09 06:28N 51°36' W 128°41'3 6.0
2018-Apr-09 06:01N 51°34' W 128°38'3 6.7
2018-Apr-09 05:30N 51°31' W 128°35'3 6.6
2018-Apr-09 05:00N 51°29' W 128°31'3 6.3
2018-Apr-09 04:30N 51°26' W 128°29'3 6.2
2018-Apr-09 04:00N 51°23' W 128°26'3 6.6
2018-Apr-09 03:30N 51°21' W 128°23'3 6.9
2018-Apr-09 03:00N 51°18' W 128°19'4 7.1
2018-Apr-09 02:30N 51°15' W 128°16'17 6.8
2018-Apr-08 23:56N 51°04' W 127°55'3 6.5
2018-Apr-08 23:29N 51°02' W 127°52'4 6.9
2018-Apr-08 22:56N 50°59' W 127°47'2 5.7
2018-Apr-08 22:30N 50°58' W 127°44'15 7.8
2018-Apr-08 20:38N 50°50' W 127°25'6 3.3
2018-Apr-08 18:57N 50°48' W 127°16'1 1.1
2018-Apr-08 18:28N 50°48' W 127°17'1 1.2
2018-Apr-08 17:58N 50°48' W 127°16'1 1.3
2018-Apr-08 17:27N 50°48' W 127°15'3 7.1
2018-Apr-08 17:00N 50°46' W 127°20'4 7.8
2018-Apr-08 16:28N 50°46' W 127°26'1 0.3
2018-Apr-08 12:40N 50°45' W 127°28'1 6.1
2018-Apr-08 12:29N 50°46' W 127°26'84 7.3
2018-Apr-08 00:58N 50°17' W 125°22'9 7.1
2018-Apr-07 23:44N 50°20' W 125°09'2 9.0
2018-Apr-07 23:30N 50°19' W 125°06'5 9.8
2018-Apr-07 23:00N 50°16' W 125°00'510.1
2018-Apr-07 22:31N 50°11' W 124°56'5 9.8
2018-Apr-07 22:00N 50°07' W 124°53'5 9.6
2018-Apr-07 21:30N 50°02' W 124°50'5 9.7
2018-Apr-07 21:00N 49°58' W 124°46'5 9.8
2018-Apr-07 20:30N 49°55' W 124°41'5 9.6
2018-Apr-07 20:00N 49°51' W 124°36'5 9.8
2018-Apr-07 19:30N 49°47' W 124°31'5 9.4
2018-Apr-07 18:59N 49°45' W 124°25'42 8.7
2018-Apr-07 14:13N 49°21' W 123°32'2 9.1
2018-Apr-07 13:59N 49°20' W 123°29'4 8.5
2018-Apr-07 13:28N 49°19' W 123°23'4 8.5
2018-Apr-07 13:00N 49°18' W 123°17'4 8.6
2018-Apr-07 12:30N 49°17' W 123°10'2 3.1
2018-Apr-07 12:00N 49°16' W 123°08'0 0.0
2018-Apr-07 11:27N 49°16' W 123°08'0 0.0
2018-Apr-07 11:00N 49°16' W 123°08'0 0.0
2018-Apr-07 10:21N 49°16' W 123°08'0 0.0
2018-Apr-07 09:21N 49°16' W 123°08'0 0.0
2018-Apr-07 09:00N 49°16' W 123°08'0 0.0
2018-Apr-07 08:30N 49°16' W 123°08'0 0.0
2018-Apr-07 07:54N 49°16' W 123°08'0 0.0
2018-Apr-07 07:27N 49°16' W 123°08'0 0.0
2018-Apr-07 06:57N 49°16' W 123°08'0 0.0
2018-Apr-07 06:30N 49°16' W 123°08'0 0.0
2018-Apr-07 05:42N 49°16' W 123°08'0 0.0
2018-Apr-07 05:30N 49°16' W 123°08'0 0.0
2018-Apr-07 04:53N 49°16' W 123°08'2 4.7
2018-Apr-07 04:28N 49°17' W 123°11'4 7.8
2018-Apr-07 04:00N 49°18' W 123°16'3 5.2
2018-Apr-07 03:30N 49°20' W 123°19'0 0.9
2018-Apr-07 02:59N 49°21' W 123°20'0 0.8
2018-Apr-07 02:29N 49°21' W 123°19'1 1.5
2018-Apr-07 01:58N 49°20' W 123°20'3 6.2
2018-Apr-07 01:28N 49°20' W 123°15'0 0.1
2018-Apr-07 00:55N 49°20' W 123°15'1 2.5
2018-Apr-07 00:28N 49°20' W 123°17'3 6.1
2018-Apr-06 23:59N 49°18' W 123°13'3 6.1
2018-Apr-06 23:25N 49°16' W 123°08'3 6.2
2018-Apr-06 23:00N 49°17' W 123°12'4 7.2
2018-Apr-06 22:30N 49°16' W 123°17'  
Track history (hours):
 
Tides and Currents Weather Stations Pressure Air Temp Water Temp Dewpoint Dewpoint Depression Visibility Wind Speed Wind Dir Waves Ship Positions

Pachena No 1

Last reported at 2018-Apr-16 21:54 UTC. Time now 2018-Apr-22 06:34 UTC.
Position N 52°15' W 128°30'.

Length 20 m.

Type: Fishing. MMSI: 316005100.

Date/timePositionNaut miles runAvg speedWind from/ knotsBaromVisibWave heightAir tempDewpointWater temp
2018-Apr-16 21:54N 52°15' W 128°30'3 6.9
2018-Apr-16 21:27N 52°15' W 128°35'3 6.8
2018-Apr-16 21:00N 52°14' W 128°40'3 6.2
2018-Apr-16 20:26N 52°14' W 128°46'  
2018-Apr-09 08:37N 51°46' W 128°55'1 6.7
2018-Apr-09 08:27N 51°45' W 128°54'3 6.4
2018-Apr-09 07:56N 51°43' W 128°51'3 6.2
2018-Apr-09 07:30N 51°41' W 128°48'3 6.1
2018-Apr-09 07:00N 51°38' W 128°45'3 6.0
2018-Apr-09 06:28N 51°36' W 128°41'3 6.0
2018-Apr-09 06:01N 51°34' W 128°38'3 6.7
2018-Apr-09 05:30N 51°31' W 128°35'3 6.6
2018-Apr-09 05:00N 51°29' W 128°31'3 6.3
2018-Apr-09 04:30N 51°26' W 128°29'3 6.2
2018-Apr-09 04:00N 51°23' W 128°26'3 6.6
2018-Apr-09 03:30N 51°21' W 128°23'3 6.9
2018-Apr-09 03:00N 51°18' W 128°19'4 7.1
2018-Apr-09 02:30N 51°15' W 128°16'17 6.8
2018-Apr-08 23:56N 51°04' W 127°55'3 6.5
2018-Apr-08 23:29N 51°02' W 127°52'4 6.9
2018-Apr-08 22:56N 50°59' W 127°47'2 5.7
2018-Apr-08 22:30N 50°58' W 127°44'15 7.8
2018-Apr-08 20:38N 50°50' W 127°25'6 3.3
2018-Apr-08 18:57N 50°48' W 127°16'1 1.1
2018-Apr-08 18:28N 50°48' W 127°17'1 1.2
2018-Apr-08 17:58N 50°48' W 127°16'1 1.3
2018-Apr-08 17:27N 50°48' W 127°15'3 7.1
2018-Apr-08 17:00N 50°46' W 127°20'4 7.8
2018-Apr-08 16:28N 50°46' W 127°26'1 0.3
2018-Apr-08 12:40N 50°45' W 127°28'1 6.1
2018-Apr-08 12:29N 50°46' W 127°26'84 7.3
2018-Apr-08 00:58N 50°17' W 125°22'9 7.1
2018-Apr-07 23:44N 50°20' W 125°09'2 9.0
2018-Apr-07 23:30N 50°19' W 125°06'5 9.8
2018-Apr-07 23:00N 50°16' W 125°00'510.1
2018-Apr-07 22:31N 50°11' W 124°56'5 9.8
2018-Apr-07 22:00N 50°07' W 124°53'5 9.6
2018-Apr-07 21:30N 50°02' W 124°50'5 9.7
2018-Apr-07 21:00N 49°58' W 124°46'5 9.8
2018-Apr-07 20:30N 49°55' W 124°41'5 9.6
2018-Apr-07 20:00N 49°51' W 124°36'5 9.8
2018-Apr-07 19:30N 49°47' W 124°31'5 9.4
2018-Apr-07 18:59N 49°45' W 124°25'42 8.7
2018-Apr-07 14:13N 49°21' W 123°32'2 9.1
2018-Apr-07 13:59N 49°20' W 123°29'4 8.5
2018-Apr-07 13:28N 49°19' W 123°23'4 8.5
2018-Apr-07 13:00N 49°18' W 123°17'4 8.6
2018-Apr-07 12:30N 49°17' W 123°10'2 3.1
2018-Apr-07 12:00N 49°16' W 123°08'0 0.0
2018-Apr-07 11:27N 49°16' W 123°08'0 0.0
2018-Apr-07 11:00N 49°16' W 123°08'0 0.0
2018-Apr-07 10:21N 49°16' W 123°08'0 0.0
2018-Apr-07 09:21N 49°16' W 123°08'0 0.0
2018-Apr-07 09:00N 49°16' W 123°08'0 0.0
2018-Apr-07 08:30N 49°16' W 123°08'0 0.0
2018-Apr-07 07:54N 49°16' W 123°08'0 0.0
2018-Apr-07 07:27N 49°16' W 123°08'0 0.0
2018-Apr-07 06:57N 49°16' W 123°08'0 0.0
2018-Apr-07 06:30N 49°16' W 123°08'0 0.0
2018-Apr-07 05:42N 49°16' W 123°08'0 0.0
2018-Apr-07 05:30N 49°16' W 123°08'0 0.0
2018-Apr-07 04:53N 49°16' W 123°08'2 4.7
2018-Apr-07 04:28N 49°17' W 123°11'4 7.8
2018-Apr-07 04:00N 49°18' W 123°16'3 5.2
2018-Apr-07 03:30N 49°20' W 123°19'0 0.9
2018-Apr-07 02:59N 49°21' W 123°20'0 0.8
2018-Apr-07 02:29N 49°21' W 123°19'1 1.5
2018-Apr-07 01:58N 49°20' W 123°20'3 6.2
2018-Apr-07 01:28N 49°20' W 123°15'0 0.1
2018-Apr-07 00:55N 49°20' W 123°15'1 2.5
2018-Apr-07 00:28N 49°20' W 123°17'3 6.1
2018-Apr-06 23:59N 49°18' W 123°13'3 6.1
2018-Apr-06 23:25N 49°16' W 123°08'3 6.2
2018-Apr-06 23:00N 49°17' W 123°12'4 7.2
2018-Apr-06 22:30N 49°16' W 123°17'  

Dump ship's entire track history